Time;durP1;ratioP1;P1;durP2;ratioP2;P2;SDS_P1;SDS_P2;PMS_P1;PMS_P2;Temp;Humidity;BMP_temperature;BMP_pressure;BME280_temperature;BME280_humidity;BME280_pressure;Samples;Min_cycle;Max_cycle;Signal;HPM_P1;HPM_P2
2023/01/07 00:01:20;;;;;;;10.60;4.30;;;9.30;98.00;;;;;;4972573;28;20466;-70
2023/01/07 00:03:48;;;;;;;7.57;3.50;;;9.30;98.00;;;;;;4972726;28;20457;-70
2023/01/07 00:06:17;;;;;;;6.50;2.80;;;9.20;98.00;;;;;;4972736;28;20472;-71
2023/01/07 00:08:46;;;;;;;6.40;3.67;;;9.20;98.00;;;;;;4972618;28;20516;-70
2023/01/07 00:11:15;;;;;;;9.17;3.83;;;9.10;98.00;;;;;;4972689;28;20461;-70
2023/01/07 00:13:44;;;;;;;6.20;3.13;;;9.10;98.00;;;;;;4972794;28;20543;-71
2023/01/07 00:16:13;;;;;;;6.07;2.83;;;9.10;98.00;;;;;;4972522;28;20470;-70
2023/01/07 00:18:41;;;;;;;6.63;3.17;;;9.10;98.00;;;;;;4972457;28;20524;-70
2023/01/07 00:21:10;;;;;;;6.70;3.60;;;9.10;98.00;;;;;;4972547;28;21006;-70
2023/01/07 00:23:38;;;;;;;6.00;3.33;;;9.10;98.00;;;;;;4972364;28;20951;-70
2023/01/07 00:26:08;;;;;;;7.20;3.07;;;9.10;98.00;;;;;;4972552;28;20850;-70
2023/01/07 00:28:36;;;;;;;4.90;2.60;;;9.10;98.00;;;;;;4972387;28;20458;-71
2023/01/07 00:31:06;;;;;;;4.60;2.60;;;9.10;98.00;;;;;;4972402;28;20476;-70
2023/01/07 00:33:34;;;;;;;3.10;2.17;;;9.10;98.00;;;;;;4972428;28;20832;-71
2023/01/07 00:36:02;;;;;;;4.87;2.90;;;9.20;98.00;;;;;;4972493;28;20453;-71
2023/01/07 00:38:29;;;;;;;4.40;2.93;;;9.20;98.00;;;;;;4972210;28;20471;-71
2023/01/07 00:40:56;;;;;;;7.83;3.30;;;9.30;98.00;;;;;;4972234;28;20472;-71
2023/01/07 00:43:26;;;;;;;8.00;3.70;;;9.30;98.00;;;;;;4972608;28;20964;-71
2023/01/07 00:45:54;;;;;;;6.43;3.57;;;9.30;98.00;;;;;;4972853;28;20467;-71
2023/01/07 00:48:22;;;;;;;6.30;3.13;;;9.50;98.00;;;;;;4972289;28;20460;-70
2023/01/07 00:50:51;;;;;;;7.43;3.60;;;9.40;98.00;;;;;;4972295;28;20485;-70
2023/01/07 00:53:18;;;;;;;6.57;3.23;;;9.40;98.00;;;;;;4972362;28;20504;-70
2023/01/07 00:55:47;;;;;;;3.93;2.77;;;9.40;98.00;;;;;;4972216;28;20456;-71
2023/01/07 00:58:15;;;;;;;5.17;3.27;;;9.30;98.00;;;;;;4972266;28;20461;-70
2023/01/07 01:00:43;;;;;;;5.80;3.67;;;9.30;98.00;;;;;;4972048;28;20543;-70
2023/01/07 01:03:11;;;;;;;9.37;3.53;;;9.40;98.00;;;;;;4972317;28;20790;-70
2023/01/07 01:05:40;;;;;;;4.83;2.70;;;9.40;98.00;;;;;;4971972;28;20469;-70
2023/01/07 01:08:08;;;;;;;5.77;3.07;;;9.50;98.00;;;;;;4972108;28;20461;-70
2023/01/07 01:10:35;;;;;;;7.10;3.17;;;9.50;98.00;;;;;;4972101;28;20849;-70
2023/01/07 01:13:02;;;;;;;4.37;2.87;;;9.60;98.00;;;;;;4972131;28;20461;-70
2023/01/07 01:15:30;;;;;;;3.30;1.70;;;9.40;98.00;;;;;;4971996;28;20458;-70
2023/01/07 01:18:00;;;;;;;3.23;2.40;;;9.40;98.00;;;;;;4972086;28;20469;-70
2023/01/07 01:20:27;;;;;;;3.00;2.20;;;9.20;98.00;;;;;;4971841;28;20495;-70
2023/01/07 01:22:55;;;;;;;5.87;3.17;;;9.10;98.00;;;;;;4973504;28;20808;-70
2023/01/07 01:25:22;;;;;;;4.80;2.40;;;9.10;98.00;;;;;;4975675;28;20878;-70
2023/01/07 01:27:49;;;;;;;6.50;3.00;;;9.00;98.00;;;;;;4975647;28;20469;-70
2023/01/07 01:30:16;;;;;;;4.83;2.80;;;9.00;98.00;;;;;;4975462;28;20468;-70
2023/01/07 01:32:43;;;;;;;4.03;2.10;;;9.00;98.00;;;;;;4975507;28;20455;-70
2023/01/07 01:35:10;;;;;;;4.80;2.83;;;9.00;98.00;;;;;;4975573;28;20485;-70
2023/01/07 01:37:37;;;;;;;5.20;3.10;;;9.00;98.00;;;;;;4975384;28;20469;-70
2023/01/07 01:40:08;;;;;;;5.60;3.30;;;9.10;98.00;;;;;;4975434;28;20485;-70
2023/01/07 01:42:35;;;;;;;5.77;3.37;;;9.10;98.00;;;;;;4975810;28;20828;-70
2023/01/07 01:45:02;;;;;;;6.80;3.07;;;9.10;98.00;;;;;;4975413;28;20462;-70
2023/01/07 01:47:35;;;;;;;6.77;3.70;;;9.10;98.00;;;;;;4975315;28;20510;-71
2023/01/07 01:50:13;;;;;;;6.53;2.70;;;9.10;98.00;;;;;;4958554;28;20472;-70
2023/01/07 01:52:44;;;;;;;7.33;3.50;;;9.10;98.00;;;;;;4975340;28;20489;-71
2023/01/07 01:55:15;;;;;;;7.50;3.13;;;9.20;98.00;;;;;;4958327;28;20959;-70
2023/01/07 01:57:44;;;;;;;10.80;3.00;;;9.20;98.00;;;;;;4975235;28;20879;-71
2023/01/07 02:00:12;;;;;;;4.87;3.20;;;9.10;98.00;;;;;;4972930;28;20481;-70
2023/01/07 02:02:44;;;;;;;8.30;3.20;;;9.00;98.00;;;;;;4974925;28;20879;-70
2023/01/07 02:05:11;;;;;;;6.17;2.87;;;9.00;98.00;;;;;;4974913;28;20468;-70
2023/01/07 02:07:38;;;;;;;5.70;2.70;;;9.00;98.00;;;;;;4974898;28;20484;-70
2023/01/07 02:10:14;;;;;;;6.47;3.00;;;9.00;98.00;;;;;;4974755;28;20461;-70
2023/01/07 02:12:53;;;;;;;4.57;3.10;;;9.00;98.00;;;;;;4974781;28;20488;-70
2023/01/07 02:15:28;;;;;;;5.80;2.80;;;9.00;98.00;;;;;;4974697;28;20471;-70
2023/01/07 02:18:20;;;;;;;6.70;3.20;;;8.90;98.00;;;;;;4974836;28;20831;-70
2023/01/07 02:20:56;;;;;;;5.20;2.80;;;8.90;98.00;;;;;;4974706;28;20584;-70
2023/01/07 02:24:03;;;;;;;6.97;3.40;;;9.00;98.00;;;;;;4974320;28;20521;-70
2023/01/07 02:27:14;;;;;;;4.00;2.47;;;9.00;98.00;;;;;;4974781;28;21272;-70
2023/01/07 02:30:13;;;;;;;5.77;3.40;;;9.00;98.00;;;;;;4939555;28;20465;-70
2023/01/07 02:33:19;;;;;;;2.80;2.40;;;9.00;98.00;;;;;;4974681;28;20473;-71
2023/01/07 02:36:06;;;;;;;4.93;2.73;;;8.90;98.00;;;;;;4967106;28;20851;-70
2023/01/07 02:38:41;;;;;;;5.73;2.60;;;8.90;98.00;;;;;;4974444;28;20536;-70
2023/01/07 02:41:17;;;;;;;8.07;2.70;;;9.00;98.00;;;;;;4974323;28;21050;-70
2023/01/07 02:43:53;;;;;;;6.00;2.93;;;8.90;98.00;;;;;;4974572;28;20488;-70
2023/01/07 02:46:28;;;;;;;6.10;2.60;;;8.90;98.00;;;;;;4974217;28;20544;-70
2023/01/07 02:49:00;;;;;;;4.33;2.57;;;9.00;98.00;;;;;;4974391;28;20545;-70
2023/01/07 02:51:34;;;;;;;7.20;2.30;;;8.90;98.00;;;;;;4974047;28;20548;-70
2023/01/07 02:54:02;;;;;;;4.40;2.80;;;8.90;98.00;;;;;;4974138;28;20701;-70
2023/01/07 02:56:43;;;;;;;4.03;2.67;;;8.90;98.00;;;;;;4973902;28;20464;-70
2023/01/07 02:59:46;;;;;;;6.00;3.03;;;8.90;98.00;;;;;;4973776;28;20454;-70
2023/01/07 03:02:42;;;;;;;6.70;3.20;;;8.90;98.00;;;;;;4941033;28;20851;-70
2023/01/07 03:05:31;;;;;;;4.33;2.70;;;8.90;98.00;;;;;;4973770;28;20828;-70
2023/01/07 03:08:15;;;;;;;6.20;3.20;;;8.80;98.00;;;;;;4973896;28;20460;-70
2023/01/07 03:10:51;;;;;;;10.03;3.03;;;8.90;98.00;;;;;;4973659;28;20456;-70
2023/01/07 03:13:23;;;;;;;4.07;2.73;;;8.90;98.00;;;;;;4973714;28;20545;-71
2023/01/07 03:15:57;;;;;;;4.73;2.50;;;8.90;98.00;;;;;;4973724;28;20509;-70
2023/01/07 03:18:28;;;;;;;4.10;2.83;;;8.90;98.00;;;;;;4973762;28;20468;-70
2023/01/07 03:21:00;;;;;;;4.30;2.70;;;8.80;98.00;;;;;;4973437;28;20486;-70
2023/01/07 03:23:30;;;;;;;4.20;2.73;;;8.90;98.00;;;;;;4973444;28;20458;-70
2023/01/07 03:26:02;;;;;;;4.47;2.37;;;9.00;98.00;;;;;;4973540;28;20475;-70
2023/01/07 03:28:34;;;;;;;8.10;3.27;;;9.00;98.00;;;;;;4973416;28;20466;-70
2023/01/07 03:31:01;;;;;;;6.23;3.43;;;9.00;98.00;;;;;;4973514;28;20842;-70
2023/01/07 03:33:35;;;;;;;6.70;2.33;;;9.00;98.00;;;;;;4973523;28;20466;-70
2023/01/07 03:36:06;;;;;;;3.93;2.80;;;8.90;98.00;;;;;;4973443;28;20491;-70
2023/01/07 03:38:37;;;;;;;5.73;3.10;;;8.90;98.00;;;;;;4973448;28;20517;-71
2023/01/07 03:41:04;;;;;;;4.53;2.77;;;8.90;98.00;;;;;;4973385;28;21082;-70
2023/01/07 03:43:30;;;;;;;4.47;2.50;;;8.90;98.00;;;;;;4973222;28;20523;-70
2023/01/07 03:46:00;;;;;;;3.90;2.50;;;8.90;98.00;;;;;;4973141;28;20862;-70
2023/01/07 03:48:27;;;;;;;4.47;2.93;;;8.90;98.00;;;;;;4973090;28;20946;-70
2023/01/07 03:50:54;;;;;;;5.47;2.80;;;8.80;98.00;;;;;;4972931;28;20461;-70
2023/01/07 03:53:21;;;;;;;3.03;2.60;;;8.90;98.00;;;;;;4972884;28;20466;-70
2023/01/07 03:55:49;;;;;;;4.50;2.23;;;8.80;98.00;;;;;;4972892;28;21011;-70
2023/01/07 03:58:19;;;;;;;4.73;2.50;;;8.80;98.00;;;;;;4972893;28;21024;-70
2023/01/07 04:00:46;;;;;;;6.00;2.70;;;8.80;98.00;;;;;;4972753;28;20485;-70
2023/01/07 04:03:13;;;;;;;6.00;2.80;;;8.80;98.00;;;;;;4972757;28;20469;-70
2023/01/07 04:05:40;;;;;;;4.70;2.73;;;8.80;98.00;;;;;;4972872;28;20465;-70
2023/01/07 04:08:07;;;;;;;4.40;2.83;;;8.80;98.00;;;;;;4972812;28;20457;-70
2023/01/07 04:10:34;;;;;;;5.40;3.03;;;8.80;98.00;;;;;;4972690;28;20470;-70
2023/01/07 04:13:03;;;;;;;5.67;2.60;;;8.80;98.00;;;;;;4972769;28;20526;-70
2023/01/07 04:15:33;;;;;;;7.33;2.80;;;8.90;98.00;;;;;;4972660;28;20461;-70
2023/01/07 04:18:00;;;;;;;5.00;2.60;;;8.80;98.00;;;;;;4972662;28;20824;-70
2023/01/07 04:20:27;;;;;;;3.93;2.93;;;8.80;98.00;;;;;;4972341;28;20486;-70
2023/01/07 04:22:54;;;;;;;4.30;2.17;;;8.90;98.00;;;;;;4972519;28;20553;-70
2023/01/07 04:25:21;;;;;;;4.87;2.50;;;8.90;98.00;;;;;;4972465;28;20461;-70
2023/01/07 04:27:48;;;;;;;5.00;3.27;;;8.80;98.00;;;;;;4972518;28;20471;-70
2023/01/07 04:30:17;;;;;;;8.30;2.47;;;8.90;98.00;;;;;;4972435;28;20468;-70
2023/01/07 04:32:44;;;;;;;4.60;2.63;;;8.80;98.00;;;;;;4972447;28;21031;-70
2023/01/07 04:35:11;;;;;;;6.43;3.13;;;9.00;98.00;;;;;;4972682;28;20465;-70
2023/01/07 04:37:38;;;;;;;5.23;3.07;;;9.00;98.00;;;;;;4972832;28;20469;-70
2023/01/07 04:40:07;;;;;;;6.50;2.63;;;8.90;98.00;;;;;;4972534;28;20994;-70
2023/01/07 04:42:34;;;;;;;5.40;2.70;;;9.00;98.00;;;;;;4972332;28;20858;-70
2023/01/07 04:45:01;;;;;;;5.83;3.03;;;9.10;98.00;;;;;;4972329;28;20467;-70
2023/01/07 04:47:29;;;;;;;4.40;2.57;;;9.00;98.00;;;;;;4972235;28;20463;-70
2023/01/07 04:49:56;;;;;;;4.10;2.67;;;8.90;98.00;;;;;;4972377;28;20518;-70
2023/01/07 04:52:23;;;;;;;6.40;3.20;;;8.90;98.00;;;;;;4972206;28;20460;-70
2023/01/07 04:54:50;;;;;;;5.77;3.23;;;8.80;98.00;;;;;;4972514;28;20457;-71
2023/01/07 04:57:17;;;;;;;4.07;2.67;;;8.70;98.00;;;;;;4972800;28;20454;-70
2023/01/07 04:59:44;;;;;;;5.37;2.20;;;8.70;98.00;;;;;;4976092;28;20959;-70
2023/01/07 05:02:11;;;;;;;3.63;2.33;;;8.70;98.00;;;;;;4976039;28;20820;-70
2023/01/07 05:04:40;;;;;;;3.47;2.60;;;8.70;98.00;;;;;;4975993;28;20458;-70
2023/01/07 05:07:07;;;;;;;4.40;2.60;;;8.70;98.00;;;;;;4975980;28;20461;-70
2023/01/07 05:09:34;;;;;;;5.00;2.40;;;8.60;98.00;;;;;;4975868;28;20873;-70
2023/01/07 05:12:01;;;;;;;3.87;2.47;;;8.60;98.00;;;;;;4975883;28;20460;-70
2023/01/07 05:14:28;;;;;;;2.67;2.23;;;8.60;98.00;;;;;;4975782;28;20454;-70
2023/01/07 05:16:55;;;;;;;4.20;2.27;;;8.60;98.00;;;;;;4975851;28;20476;-70
2023/01/07 05:19:22;;;;;;;8.93;2.53;;;8.60;98.00;;;;;;4975935;28;20464;-70
2023/01/07 05:21:50;;;;;;;4.33;2.37;;;8.60;98.00;;;;;;4975194;28;20484;-70
2023/01/07 05:24:17;;;;;;;3.40;2.30;;;8.60;98.00;;;;;;4975763;28;20454;-70
2023/01/07 05:26:44;;;;;;;4.50;2.73;;;8.70;98.00;;;;;;4975525;28;20453;-70
2023/01/07 05:29:12;;;;;;;5.10;2.20;;;8.70;98.00;;;;;;4975624;28;20522;-70
2023/01/07 05:31:39;;;;;;;4.93;2.77;;;8.60;98.00;;;;;;4975542;28;20519;-70
2023/01/07 05:34:06;;;;;;;4.30;2.30;;;8.60;98.00;;;;;;4975680;28;20918;-70
2023/01/07 05:36:33;;;;;;;5.30;2.50;;;8.70;98.00;;;;;;4975613;28;20490;-70
2023/01/07 05:39:02;;;;;;;3.90;2.40;;;8.70;98.00;;;;;;4975780;28;21031;-70
2023/01/07 05:41:29;;;;;;;7.70;2.90;;;8.70;98.00;;;;;;4975218;28;20855;-70
2023/01/07 05:43:56;;;;;;;6.80;3.67;;;8.70;98.00;;;;;;4975527;28;20860;-70
2023/01/07 05:46:23;;;;;;;4.37;2.23;;;8.70;98.00;;;;;;4975495;28;20461;-70
2023/01/07 05:48:50;;;;;;;4.27;2.17;;;8.70;98.00;;;;;;4975188;28;20975;-70
2023/01/07 05:51:25;;;;;;;10.40;3.30;;;8.70;98.00;;;;;;4975197;28;20824;-70
2023/01/07 05:53:52;;;;;;;5.70;2.90;;;8.70;98.00;;;;;;4975131;28;20552;-70
2023/01/07 05:56:20;;;;;;;5.30;2.50;;;8.70;98.00;;;;;;4975161;28;20469;-70
2023/01/07 05:58:47;;;;;;;5.43;3.00;;;8.70;98.00;;;;;;4975152;28;20453;-70
2023/01/07 06:01:14;;;;;;;4.73;2.47;;;8.70;98.00;;;;;;4974893;28;20493;-70
2023/01/07 06:03:41;;;;;;;2.90;2.50;;;8.60;98.00;;;;;;4974947;28;20449;-70
2023/01/07 06:06:08;;;;;;;4.63;3.00;;;8.50;98.00;;;;;;4974911;28;20973;-70
2023/01/07 06:08:37;;;;;;;8.07;3.20;;;8.70;98.00;;;;;;4974806;28;20880;-70
2023/01/07 06:11:05;;;;;;;6.00;2.27;;;8.70;98.00;;;;;;4974864;28;20465;-70
2023/01/07 06:13:34;;;;;;;3.37;1.90;;;8.70;98.00;;;;;;4974739;28;20796;-70
2023/01/07 06:16:02;;;;;;;2.47;1.67;;;8.70;98.00;;;;;;4974318;28;20470;-70
2023/01/07 06:18:29;;;;;;;4.67;2.53;;;8.70;98.00;;;;;;4974688;28;20762;-70
2023/01/07 06:20:56;;;;;;;2.27;2.00;;;8.70;98.00;;;;;;4974652;28;20481;-70
2023/01/07 06:23:23;;;;;;;6.20;2.27;;;8.70;98.00;;;;;;4974596;28;20461;-70
2023/01/07 06:25:50;;;;;;;2.20;1.77;;;8.70;98.00;;;;;;4974580;28;20532;-70
2023/01/07 06:28:17;;;;;;;1.77;1.50;;;8.70;98.00;;;;;;4974505;28;20464;-70
2023/01/07 06:30:48;;;;;;;3.50;1.57;;;8.70;98.00;;;;;;4974469;28;20468;-70
2023/01/07 06:33:16;;;;;;;1.57;1.30;;;8.80;98.00;;;;;;4974548;28;20512;-70
2023/01/07 06:35:45;;;;;;;1.37;1.33;;;8.90;98.00;;;;;;4974626;28;20457;-70
2023/01/07 06:38:12;;;;;;;1.90;1.53;;;8.90;98.00;;;;;;4974628;28;20467;-70
2023/01/07 06:40:39;;;;;;;1.70;1.40;;;8.90;98.00;;;;;;4957104;28;20517;-70
2023/01/07 06:43:06;;;;;;;2.10;1.80;;;9.00;98.00;;;;;;4974684;28;20524;-70
2023/01/07 06:45:33;;;;;;;3.00;1.57;;;9.00;98.00;;;;;;4974165;28;20880;-70
2023/01/07 06:48:02;;;;;;;2.43;1.63;;;9.10;98.00;;;;;;4974116;28;20463;-70
2023/01/07 06:50:29;;;;;;;1.83;1.47;;;9.10;98.00;;;;;;4973813;28;20964;-70
2023/01/07 06:52:56;;;;;;;1.57;1.40;;;9.00;98.00;;;;;;4974183;28;20517;-70
2023/01/07 06:55:24;;;;;;;1.87;1.40;;;9.10;98.00;;;;;;4974122;28;20887;-70
2023/01/07 06:57:51;;;;;;;3.63;1.97;;;9.10;98.00;;;;;;4974139;28;20464;-70
2023/01/07 07:00:18;;;;;;;2.33;1.50;;;9.10;98.00;;;;;;4973875;28;20504;-70
2023/01/07 07:02:45;;;;;;;3.93;1.43;;;9.00;98.00;;;;;;4973849;28;20485;-70
2023/01/07 07:05:13;;;;;;;1.40;1.30;;;9.00;98.00;;;;;;4974135;28;20462;-69
2023/01/07 07:07:40;;;;;;;1.30;1.20;;;9.00;98.00;;;;;;4973767;28;20458;-69
2023/01/07 07:10:08;;;;;;;2.40;1.40;;;9.00;98.00;;;;;;4973864;28;20463;-69
2023/01/07 07:12:36;;;;;;;2.33;1.83;;;9.00;98.00;;;;;;4973715;28;20468;-70
2023/01/07 07:15:04;;;;;;;2.40;1.37;;;9.00;98.00;;;;;;4973525;28;20461;-69
2023/01/07 07:17:31;;;;;;;1.60;1.47;;;9.00;98.00;;;;;;4973680;28;20467;-70
2023/01/07 07:19:58;;;;;;;1.90;1.50;;;9.00;98.00;;;;;;4973146;28;20771;-69
2023/01/07 07:22:26;;;;;;;2.00;1.47;;;9.10;98.00;;;;;;4973452;28;20573;-70
2023/01/07 07:24:53;;;;;;;1.67;1.30;;;9.10;98.00;;;;;;4973642;28;20835;-70
2023/01/07 07:27:21;;;;;;;2.10;1.60;;;9.10;98.00;;;;;;4973536;28;20468;-70
2023/01/07 07:29:48;;;;;;;2.83;1.87;;;9.10;98.00;;;;;;4956482;28;20483;-70
2023/01/07 07:32:15;;;;;;;3.23;1.80;;;9.00;98.00;;;;;;4973383;28;20470;-71
2023/01/07 07:34:42;;;;;;;3.40;1.13;;;9.00;98.00;;;;;;4973512;28;20460;-71
2023/01/07 07:37:09;;;;;;;1.43;1.40;;;9.00;98.00;;;;;;4973479;28;20462;-71
2023/01/07 07:39:38;;;;;;;1.90;1.70;;;8.90;98.00;;;;;;4973376;28;20525;-71
2023/01/07 07:42:05;;;;;;;2.20;1.50;;;9.00;98.00;;;;;;4972992;28;20567;-71
2023/01/07 07:44:33;;;;;;;1.60;1.37;;;9.00;98.00;;;;;;4973088;28;20504;-71
2023/01/07 07:47:00;;;;;;;2.27;1.70;;;9.00;98.00;;;;;;4973041;28;20468;-71
2023/01/07 07:49:27;;;;;;;1.47;1.33;;;9.00;98.00;;;;;;4973075;28;20460;-70
2023/01/07 07:51:54;;;;;;;1.70;1.40;;;9.10;98.00;;;;;;4973197;28;20855;-71
2023/01/07 07:54:21;;;;;;;1.67;1.40;;;9.00;98.00;;;;;;4972910;28;20869;-71
2023/01/07 07:56:49;;;;;;;1.50;1.43;;;9.00;98.00;;;;;;4972765;28;20466;-70
2023/01/07 07:59:16;;;;;;;2.10;1.50;;;9.00;98.00;;;;;;4972677;28;20512;-70
2023/01/07 08:01:43;;;;;;;2.40;1.63;;;9.00;98.00;;;;;;4972932;28;20497;-71
2023/01/07 08:04:10;;;;;;;2.40;1.70;;;9.00;98.00;;;;;;4972761;28;20453;-71
2023/01/07 08:06:37;;;;;;;1.60;1.33;;;9.10;98.00;;;;;;4972736;28;20872;-71
2023/01/07 08:09:04;;;;;;;2.63;2.00;;;9.10;98.00;;;;;;4972951;28;20457;-70
2023/01/07 08:11:31;;;;;;;1.37;1.33;;;9.10;98.00;;;;;;4972620;28;20467;-70
2023/01/07 08:14:00;;;;;;;1.97;1.40;;;9.20;98.00;;;;;;4972639;28;20457;-71
2023/01/07 08:16:27;;;;;;;1.70;1.37;;;9.20;98.00;;;;;;4972603;28;20542;-70
2023/01/07 08:18:54;;;;;;;1.87;1.43;;;9.20;98.00;;;;;;4972739;28;20464;-71
2023/01/07 08:21:21;;;;;;;1.70;1.40;;;9.20;98.00;;;;;;4972489;28;20582;-70
2023/01/07 08:23:48;;;;;;;1.30;1.30;;;9.20;98.00;;;;;;4972569;28;20471;-70
2023/01/07 08:26:15;;;;;;;2.60;1.60;;;9.20;98.00;;;;;;4972721;28;20804;-70
2023/01/07 08:28:42;;;;;;;3.40;1.97;;;9.20;98.00;;;;;;4972569;28;20461;-70
2023/01/07 08:31:10;;;;;;;4.83;3.10;;;9.30;98.00;;;;;;4972533;28;20953;-71
2023/01/07 08:33:38;;;;;;;4.07;2.10;;;9.20;98.00;;;;;;4972248;28;20467;-71
2023/01/07 08:36:10;;;;;;;3.50;1.80;;;9.20;98.00;;;;;;4972819;28;20486;-71
2023/01/07 08:38:37;;;;;;;3.33;2.13;;;9.30;98.00;;;;;;4972119;28;21022;-70
2023/01/07 08:41:04;;;;;;;2.70;1.97;;;9.30;98.00;;;;;;4972202;28;20526;-71
2023/01/07 08:43:32;;;;;;;1.80;1.60;;;9.30;98.00;;;;;;4972357;28;20902;-70
2023/01/07 08:45:59;;;;;;;1.63;1.40;;;9.50;98.00;;;;;;4972329;28;20500;-71
2023/01/07 08:48:29;;;;;;;2.00;1.60;;;9.50;98.00;;;;;;4972273;28;20456;-71
2023/01/07 08:50:56;;;;;;;2.00;1.50;;;9.50;98.00;;;;;;4955006;28;20516;-70
2023/01/07 08:53:23;;;;;;;1.60;1.40;;;9.50;98.00;;;;;;4972294;28;20457;-70
2023/01/07 08:55:50;;;;;;;2.33;1.50;;;9.80;98.00;;;;;;4971949;28;21008;-70
2023/01/07 08:58:17;;;;;;;2.73;1.60;;;9.90;98.00;;;;;;4972255;28;20461;-70
2023/01/07 09:00:44;;;;;;;1.63;1.40;;;9.80;98.00;;;;;;4972193;28;20466;-70
2023/01/07 09:03:11;;;;;;;1.80;1.40;;;9.80;98.00;;;;;;4971932;28;20562;-71
2023/01/07 09:05:40;;;;;;;2.67;1.50;;;9.80;98.00;;;;;;4972202;28;20458;-71
2023/01/07 09:08:07;;;;;;;3.60;1.80;;;9.80;98.00;;;;;;4972177;28;20458;-71
2023/01/07 09:10:34;;;;;;;3.10;1.77;;;10.00;98.00;;;;;;4972191;28;20457;-70
2023/01/07 09:13:01;;;;;;;3.20;1.60;;;10.10;98.00;;;;;;4971736;28;20977;-71
2023/01/07 09:15:30;;;;;;;2.47;1.80;;;10.00;98.00;;;;;;4972078;28;20460;-70
2023/01/07 09:17:57;;;;;;;1.93;1.50;;;10.10;98.00;;;;;;4972092;28;20507;-70
2023/01/07 09:20:24;;;;;;;3.07;1.60;;;10.10;98.00;;;;;;4972026;28;20958;-70
2023/01/07 09:22:53;;;;;;;2.07;1.67;;;10.10;98.00;;;;;;4972098;28;20492;-70
2023/01/07 09:25:20;;;;;;;2.23;1.40;;;10.30;98.00;;;;;;4971965;28;20461;-70
2023/01/07 09:27:48;;;;;;;2.20;1.50;;;10.40;98.00;;;;;;4972127;28;20546;-70
2023/01/07 09:30:16;;;;;;;2.67;1.70;;;10.40;98.00;;;;;;4972223;28;20481;-70
2023/01/07 09:32:43;;;;;;;3.00;1.50;;;10.50;98.00;;;;;;4972230;28;20471;-71
2023/01/07 09:35:10;;;;;;;2.40;1.70;;;10.60;98.00;;;;;;4972053;28;20485;-71
2023/01/07 09:37:37;;;;;;;2.23;1.53;;;10.60;98.00;;;;;;4972016;28;20820;-71
2023/01/07 09:40:08;;;;;;;2.53;1.70;;;10.70;98.00;;;;;;4971865;28;20463;-71
2023/01/07 09:42:43;;;;;;;2.40;1.57;;;10.60;98.00;;;;;;4971746;28;20486;-71
2023/01/07 09:45:16;;;;;;;2.43;1.70;;;10.60;98.00;;;;;;4975194;28;20467;-71
2023/01/07 09:47:46;;;;;;;2.77;2.00;;;10.50;98.00;;;;;;4975468;28;20458;-71
2023/01/07 09:50:21;;;;;;;4.50;2.37;;;10.50;98.00;;;;;;4975387;28;20460;-70
2023/01/07 09:52:51;;;;;;;3.17;1.87;;;10.50;98.00;;;;;;4975276;28;20468;-70
2023/01/07 09:55:24;;;;;;;2.60;2.10;;;10.60;98.00;;;;;;4975042;28;20457;-71
2023/01/07 09:57:51;;;;;;;4.33;2.27;;;10.70;98.00;;;;;;4975281;28;20464;-71
2023/01/07 10:00:22;;;;;;;2.80;1.67;;;10.60;98.00;;;;;;4975094;28;20969;-71
2023/01/07 10:03:10;;;;;;;5.10;2.50;;;10.70;98.00;;;;;;4974750;28;20903;-70
2023/01/07 10:05:46;;;;;;;6.00;2.20;;;10.60;98.00;;;;;;4975031;28;20465;-71
2023/01/07 10:08:22;;;;;;;3.23;1.90;;;10.60;98.00;;;;;;4974930;28;20472;-70
2023/01/07 10:10:59;;;;;;;5.03;2.00;;;10.60;98.00;;;;;;4974977;28;20880;-70
2023/01/07 10:13:43;;;;;;;2.63;1.93;;;10.70;98.00;;;;;;4974984;28;20467;-71
2023/01/07 10:16:18;;;;;;;4.70;2.43;;;10.80;98.00;;;;;;4974832;28;20831;-70
2023/01/07 10:18:54;;;;;;;2.33;1.60;;;10.80;98.00;;;;;;4974885;28;20533;-70
2023/01/07 10:21:25;;;;;;;4.20;2.20;;;11.00;98.00;;;;;;4974594;28;21014;-70
2023/01/07 10:24:01;;;;;;;3.00;2.00;;;11.00;98.00;;;;;;4974652;28;21010;-70
2023/01/07 10:26:36;;;;;;;3.10;2.20;;;11.10;98.00;;;;;;4974648;28;21018;-71
2023/01/07 10:29:12;;;;;;;3.37;1.90;;;11.10;98.00;;;;;;4974858;28;20465;-71
2023/01/07 10:31:39;;;;;;;2.97;2.20;;;11.20;98.00;;;;;;4974782;28;20510;-71
2023/01/07 10:34:14;;;;;;;3.33;2.10;;;11.10;98.00;;;;;;4974586;28;20465;-71
2023/01/07 10:36:53;;;;;;;3.87;2.10;;;11.20;98.00;;;;;;4974695;28;20924;-70
2023/01/07 10:39:29;;;;;;;3.33;2.47;;;11.20;98.00;;;;;;4974246;28;20473;-71
2023/01/07 10:42:04;;;;;;;5.73;2.67;;;11.10;98.00;;;;;;4974277;28;20467;-70
2023/01/07 10:45:14;;;;;;;3.27;1.90;;;11.20;98.00;;;;;;4974443;28;21007;-70
2023/01/07 10:47:55;;;;;;;2.30;1.57;;;11.20;98.00;;;;;;4974339;28;20537;-70
2023/01/07 10:50:48;;;;;;;2.63;1.90;;;11.30;98.00;;;;;;4974227;28;20527;-70
2023/01/07 10:53:28;;;;;;;2.30;1.77;;;11.40;98.00;;;;;;4974107;28;20465;-70
2023/01/07 10:56:05;;;;;;;3.17;2.00;;;11.40;98.00;;;;;;4973101;28;20468;-70
2023/01/07 10:58:40;;;;;;;3.43;2.13;;;11.40;98.00;;;;;;4973963;28;20467;-71
2023/01/07 11:01:08;;;;;;;5.30;2.70;;;11.40;98.00;;;;;;4973960;28;20465;-71
2023/01/07 11:03:38;;;;;;;4.57;2.60;;;11.50;98.00;;;;;;4973734;28;20483;-71
2023/01/07 11:06:09;;;;;;;2.53;1.87;;;11.50;98.00;;;;;;4973896;28;20479;-70
2023/01/07 11:08:39;;;;;;;3.97;2.20;;;11.60;98.00;;;;;;4973821;28;20464;-70
2023/01/07 11:11:10;;;;;;;3.10;2.00;;;11.50;98.00;;;;;;4973923;28;20466;-71
2023/01/07 11:13:41;;;;;;;3.10;1.83;;;11.40;98.00;;;;;;4973771;28;20459;-71
2023/01/07 11:16:11;;;;;;;2.53;1.90;;;11.40;98.00;;;;;;4973797;28;20959;-71
2023/01/07 11:18:47;;;;;;;2.70;2.17;;;11.60;98.00;;;;;;4973640;28;20487;-70
2023/01/07 11:21:32;;;;;;;3.53;2.43;;;11.70;98.00;;;;;;4973566;28;20513;-71
2023/01/07 11:24:00;;;;;;;9.93;2.30;;;11.60;98.00;;;;;;4973571;28;20494;-71
2023/01/07 11:26:31;;;;;;;2.60;2.13;;;11.70;98.00;;;;;;4973561;28;20463;-70
2023/01/07 11:29:13;;;;;;;3.17;1.93;;;11.70;98.00;;;;;;4973849;28;20466;-71
2023/01/07 11:31:48;;;;;;;2.43;1.90;;;11.70;98.00;;;;;;4973643;28;20959;-71
2023/01/07 11:34:23;;;;;;;3.50;2.00;;;11.90;98.00;;;;;;4973439;28;20459;-71
2023/01/07 11:36:51;;;;;;;3.10;2.00;;;12.10;98.00;;;;;;4973551;28;20459;-70
2023/01/07 11:39:23;;;;;;;3.43;2.40;;;12.20;98.00;;;;;;4973195;28;20463;-71
2023/01/07 11:41:53;;;;;;;3.60;2.10;;;12.40;98.00;;;;;;4973154;28;20529;-71
2023/01/07 11:44:22;;;;;;;4.90;2.17;;;12.50;98.00;;;;;;4973135;28;20539;-70
2023/01/07 11:46:50;;;;;;;3.63;2.23;;;12.60;98.00;;;;;;4973200;28;20558;-71
2023/01/07 11:49:26;;;;;;;3.23;2.10;;;12.70;98.00;;;;;;4956007;28;20464;-71
2023/01/07 11:51:54;;;;;;;3.13;2.10;;;12.50;98.00;;;;;;4969627;28;20546;-71
2023/01/07 11:54:23;;;;;;;4.30;2.10;;;12.40;98.00;;;;;;4972903;28;20515;-71
2023/01/07 11:56:50;;;;;;;3.00;1.73;;;12.40;98.00;;;;;;4973031;28;20462;-70
2023/01/07 11:59:30;;;;;;;3.80;2.20;;;12.50;98.00;;;;;;4972811;28;20535;-70
2023/01/07 12:01:59;;;;;;;4.07;2.10;;;12.70;98.00;;;;;;4972898;28;20460;-70
2023/01/07 12:04:29;;;;;;;3.10;1.93;;;12.70;98.00;;;;;;4972794;28;20584;-71
2023/01/07 12:06:59;;;;;;;4.47;2.27;;;12.90;98.00;;;;;;4972663;28;20502;-70
2023/01/07 12:09:34;;;;;;;2.70;1.60;;;12.90;98.00;;;;;;4972736;28;20470;-70
2023/01/07 12:12:30;;;;;;;4.73;2.30;;;12.90;98.00;;;;;;4972880;28;20490;-71
2023/01/07 12:14:59;;;;;;;2.70;2.10;;;12.80;98.00;;;;;;4972597;28;20552;-71
2023/01/07 12:17:31;;;;;;;3.10;2.30;;;12.80;98.00;;;;;;4972643;28;20469;-71
2023/01/07 12:20:38;;;;;;;4.40;2.30;;;12.70;98.00;;;;;;4972672;28;20514;-71
2023/01/07 12:23:14;;;;;;;6.87;2.70;;;12.90;98.00;;;;;;4972651;28;20903;-71
2023/01/07 12:25:56;;;;;;;3.83;2.10;;;13.10;98.00;;;;;;4972706;28;20473;-70
2023/01/07 12:28:37;;;;;;;2.70;1.80;;;13.40;98.00;;;;;;4972979;28;20470;-71
2023/01/07 12:31:26;;;;;;;5.17;2.47;;;13.70;98.00;;;;;;4972718;28;20461;-71
2023/01/07 12:34:07;;;;;;;3.00;2.13;;;14.00;98.00;;;;;;4972624;28;21035;-71
2023/01/07 12:36:45;;;;;;;4.20;2.43;;;14.30;98.00;;;;;;4972475;28;20462;-71
2023/01/07 12:39:17;;;;;;;4.10;2.20;;;14.50;98.00;;;;;;4972570;28;20459;-71
2023/01/07 12:41:50;;;;;;;3.57;2.30;;;14.80;98.00;;;;;;4972304;28;20475;-68
2023/01/07 12:44:19;;;;;;;4.60;2.33;;;15.10;98.00;;;;;;4972244;28;20778;-68
2023/01/07 12:47:06;;;;;;;3.50;2.40;;;15.40;98.00;;;;;;4972506;28;20465;-68
2023/01/07 12:49:36;;;;;;;4.20;2.30;;;15.60;98.00;;;;;;4972479;28;20603;-68
2023/01/07 12:52:12;;;;;;;2.90;2.20;;;15.90;98.00;;;;;;4972439;28;20464;-68
2023/01/07 12:54:51;;;;;;;6.60;3.20;;;16.00;98.00;;;;;;4972334;28;20458;-68
2023/01/07 12:57:22;;;;;;;6.90;3.07;;;16.20;98.00;;;;;;4972260;28;20826;-68
2023/01/07 12:59:57;;;;;;;3.70;2.53;;;16.30;98.00;;;;;;4955257;28;20805;-68
2023/01/07 13:02:34;;;;;;;4.23;2.23;;;16.40;98.00;;;;;;4972123;28;20863;-68
2023/01/07 13:05:10;;;;;;;3.30;2.20;;;16.60;98.00;;;;;;4972412;28;20484;-68
2023/01/07 13:07:45;;;;;;;4.20;2.17;;;16.50;98.00;;;;;;4972137;28;20491;-71
2023/01/07 13:10:17;;;;;;;3.70;2.30;;;16.40;98.00;;;;;;4972116;28;20539;-71
2023/01/07 13:12:46;;;;;;;4.27;2.37;;;16.40;98.00;;;;;;4972221;28;20472;-70